N675JK KEGE-KCRQ
Flight info
| Callsign | N675JK |
|---|---|
| Flight time | N/A |
| Altitude | 43000 |
| Route | BEVVR1 SPRKT EKR J100 SAKES Q70 BAWER Q114 BLD TNP TRM |
| Aircraft | C700/M-SBDGHM1RWXY/LB2 |
Departure
| Time | 2026-04-30 22:24 |
|---|---|
| Airport | Eagle County Regional Airport (KEGE) |
Arrival
| Time | N/A |
|---|---|
| Airport | McClellan-Palomar Airport (KCRQ) |
| Time | Latitude | Longitude | Altitude | Speed | Heading |
|---|---|---|---|---|---|
| 2026-04-30 22:06 | 39.64067 | -106.91104 | 6522 ft | 0 kts | 265° |
| 2026-04-30 22:19 | 39.64068 | -106.91124 | 6521 ft | 6 kts | 290° |
| 2026-04-30 22:19 | 39.64165 | -106.91074 | 6523 ft | 11 kts | 82° |
| 2026-04-30 22:20 | 39.64181 | -106.90952 | 6527 ft | 15 kts | 71° |
| 2026-04-30 22:20 | 39.64261 | -106.90723 | 6533 ft | 17 kts | 83° |
| 2026-04-30 22:20 | 39.64279 | -106.90563 | 6537 ft | 19 kts | 82° |
| 2026-04-30 22:21 | 39.64297 | -106.90387 | 6542 ft | 21 kts | 82° |
| 2026-04-30 22:21 | 39.64319 | -106.90197 | 6547 ft | 22 kts | 82° |
| 2026-04-30 22:21 | 39.64339 | -106.90041 | 6552 ft | 11 kts | 70° |
| 2026-04-30 22:21 | 39.64347 | -106.90025 | 6552 ft | 0 kts | 49° |
| 2026-04-30 22:22 | 39.64352 | -106.90019 | 6552 ft | 5 kts | 34° |
| 2026-04-30 22:22 | 39.64423 | -106.90019 | 6553 ft | 12 kts | 352° |
| 2026-04-30 22:23 | 39.64448 | -106.90056 | 6552 ft | 0 kts | 261° |
| 2026-04-30 22:23 | 39.64426 | -106.90250 | 6545 ft | 67 kts | 262° |
| 2026-04-30 22:24 | 39.64315 | -106.91267 | 6532 ft | 156 kts | 266° |
| 2026-04-30 22:24 | 39.64060 | -106.92848 | 7260 ft | 196 kts | 249° |
| 2026-04-30 22:24 | 39.63102 | -106.94278 | 8459 ft | 223 kts | 215° |
| 2026-04-30 22:24 | 39.61645 | -106.95227 | 9826 ft | 247 kts | 204° |
| 2026-04-30 22:25 | 39.59999 | -106.96267 | 10944 ft | 270 kts | 213° |
| 2026-04-30 22:25 | 39.58676 | -106.97951 | 12633 ft | 267 kts | 242° |
| 2026-04-30 22:25 | 39.58148 | -107.00193 | 14327 ft | 262 kts | 260° |
| 2026-04-30 22:25 | 39.57949 | -107.02620 | 15282 ft | 285 kts | 277° |
| 2026-04-30 22:26 | 39.59143 | -107.07261 | 18397 ft | 280 kts | 303° |
| 2026-04-30 22:26 | 39.60507 | -107.09121 | 19458 ft | 288 kts | 320° |
| 2026-04-30 22:26 | 39.62290 | -107.10368 | 20493 ft | 297 kts | 338° |
| 2026-04-30 22:27 | 39.64403 | -107.10838 | 21095 ft | 324 kts | 358° |
| 2026-04-30 22:27 | 39.66751 | -107.10393 | 21388 ft | 354 kts | 6° |
| 2026-04-30 22:27 | 39.71749 | -107.11157 | 22933 ft | 369 kts | 338° |
| 2026-04-30 22:28 | 39.76079 | -107.14726 | 24747 ft | 371 kts | 312° |
| 2026-04-30 22:28 | 39.77684 | -107.17358 | 25614 ft | 371 kts | 302° |
| 2026-04-30 22:29 | 39.82070 | -107.25781 | 28128 ft | 381 kts | 301° |
| 2026-04-30 22:29 | 39.83561 | -107.28656 | 28973 ft | 385 kts | 301° |
| 2026-04-30 22:30 | 39.89675 | -107.40434 | 31860 ft | 398 kts | 300° |
| 2026-04-30 22:31 | 39.94372 | -107.49518 | 33923 ft | 403 kts | 300° |
| 2026-04-30 22:32 | 39.97862 | -107.59135 | 36135 ft | 387 kts | 285° |
| 2026-04-30 22:32 | 39.99639 | -107.65723 | 37458 ft | 382 kts | 286° |
| 2026-04-30 22:33 | 40.02223 | -107.75441 | 39165 ft | 376 kts | 285° |
| 2026-04-30 22:33 | 40.03780 | -107.81965 | 39803 ft | 376 kts | 279° |
| 2026-04-30 22:34 | 40.04101 | -107.92112 | 40744 ft | 377 kts | 263° |
| 2026-04-30 22:35 | 40.02838 | -107.98779 | 41337 ft | 381 kts | 252° |
| 2026-04-30 22:36 | 39.97413 | -108.10844 | 42384 ft | 388 kts | 240° |
| 2026-04-30 22:36 | 39.95941 | -108.13752 | 42632 ft | 389 kts | 240° |
| 2026-04-30 22:37 | 39.91407 | -108.22617 | 43066 ft | 398 kts | 240° |
| 2026-04-30 22:37 | 39.89858 | -108.25650 | 43050 ft | 404 kts | 240° |
| 2026-04-30 22:37 | 39.86688 | -108.31830 | 43045 ft | 415 kts | 240° |
| 2026-04-30 22:38 | 39.83456 | -108.38125 | 43042 ft | 425 kts | 239° |
| 2026-04-30 22:39 | 39.78484 | -108.47773 | 43034 ft | 425 kts | 239° |
| 2026-04-30 22:40 | 39.68647 | -108.66799 | 43008 ft | 424 kts | 239° |
| 2026-04-30 22:41 | 39.60398 | -108.82658 | 42987 ft | 425 kts | 239° |
| 2026-04-30 22:43 | 39.50481 | -109.01623 | 42965 ft | 423 kts | 239° |
| 2026-04-30 22:44 | 39.43883 | -109.14177 | 42962 ft | 421 kts | 239° |
| 2026-04-30 22:45 | 39.33914 | -109.33055 | 42965 ft | 423 kts | 239° |
| 2026-04-30 22:47 | 39.23958 | -109.51796 | 42971 ft | 423 kts | 239° |
| 2026-04-30 22:48 | 39.17277 | -109.64305 | 42960 ft | 423 kts | 239° |
| 2026-04-30 22:49 | 39.07248 | -109.83004 | 42959 ft | 423 kts | 239° |
| 2026-04-30 22:51 | 38.97203 | -110.01620 | 42941 ft | 422 kts | 238° |
| 2026-04-30 22:52 | 38.92186 | -110.10878 | 42925 ft | 419 kts | 238° |
| 2026-04-30 22:53 | 38.85508 | -110.23163 | 42916 ft | 421 kts | 238° |
| 2026-04-30 22:53 | 38.80324 | -110.32341 | 42917 ft | 424 kts | 237° |
| 2026-04-30 22:55 | 38.71601 | -110.47362 | 42918 ft | 418 kts | 237° |
| 2026-04-30 22:56 | 38.64604 | -110.59363 | 42956 ft | 424 kts | 237° |
| 2026-04-30 22:57 | 38.55794 | -110.74408 | 42988 ft | 419 kts | 237° |
| 2026-04-30 22:58 | 38.48785 | -110.86329 | 42985 ft | 424 kts | 236° |
| 2026-04-30 22:59 | 38.43444 | -110.95379 | 42855 ft | 425 kts | 236° |
| 2026-04-30 22:59 | 38.38163 | -111.04306 | 42429 ft | 418 kts | 236° |